• Join FlightAware (Why Join?)
  • Login
  • US Flag 
09:48AM EST


 

Airport Tracker/Info


-or-


 

Live Flight TrackerFlight Track Log ✈ N530JT ✈ 23-Jul-2013 ✈ KABI - KHRX

Flight Track Log - Related Links

Times and Time Zones

All times are in EDT time to prevent confusion due to time zone crossing. See the N530JT flight status page for this flight to view local times or setup timezone preferences in your user account.

Time Position Orientation Groundspeed Altitude Reporting Facility
EDT Latitude Longitude Course Direction KTS MPH feet Rate Location/Type
06:43PM 32.4614 -99.8264 320° Northwest 194 223 7,500  Level Fort Worth Center
06:44PM 32.5025 -99.8669 320° Northwest 194 223 8,900 1,380 Climbing Fort Worth Center
06:45PM 32.6591 -99.9424 320° Northwest  Level FlightAware Approximate
06:45PM 32.5414 -99.9047 321° Northwest 189 217 10,300  Level Fort Worth Center
06:46PM 32.7035 -99.9868 320° Northwest  Level FlightAware Approximate
06:46PM 32.5781 -99.9428 319° Northwest 184 212 11,700  Level Fort Worth Center
06:47PM 32.7480 -100.0312 320° Northwest  Level FlightAware Approximate
06:47PM 32.6150 -99.9808 319° Northwest 184 212 13,100  Level Fort Worth Center
06:48PM 32.7924 -100.0757 320° Northwest  Level FlightAware Approximate
06:48PM 32.6519 -100.0067 330° Northwest 184 212 14,100  Level Fort Worth Center
06:49PM 32.6953 -100.0325 333° Northwest 173 199 15,600 1,380 Climbing Fort Worth Center
06:50PM 32.7383 -100.0658 327° Northwest 173 199 16,900 1,260 Climbing Fort Worth Center
06:51PM 32.7817 -100.0944 331° Northwest 173 199 18,200 1,200 Climbing Fort Worth Center
06:52PM 32.8250 -100.1253 329° Northwest 173 199 19,400 1,020 Climbing Fort Worth Center
06:53PM 32.8681 -100.1539 331° Northwest 173 199 20,300 900 Climbing Fort Worth Center
06:54PM 32.9133 -100.1850 330° Northwest 179 206 21,200 840 Climbing Fort Worth Center
06:55PM 32.9606 -100.2186 329° Northwest 179 206 22,000 720 Climbing Fort Worth Center
06:56PM 33.0078 -100.2497 331° Northwest 184 212 22,700 660 Climbing Fort Worth Center
06:57PM 33.0508 -100.2883 323° Northwest 184 212 23,400 600 Climbing Fort Worth Center
06:58PM 33.0917 -100.3319 318° Northwest 189 217 24,000 300 Climbing Fort Worth Center
06:59PM 33.1364 -100.3781 319° Northwest 200 230 24,000  Level Fort Worth Center
07:00PM 33.1811 -100.4292 316° Northwest 213 245 24,000  Level Fort Worth Center
07:01PM 33.2258 -100.4803 316° Northwest 219 252 24,000  Level Fort Worth Center
07:02PM 33.2767 -100.5317 320° Northwest 224 258 24,000  Level Fort Worth Center
07:03PM 33.3233 -100.5856 316° Northwest 230 265 24,000  Level Fort Worth Center
07:04PM 33.3719 -100.6394 317° Northwest 236 272 24,000  Level Fort Worth Center
07:05PM 33.4186 -100.6936 316° Northwest 236 272 24,000  Level Fort Worth Center
07:06PM 33.4675 -100.7450 319° Northwest 236 272 24,000  Level Fort Worth Center
07:07PM 33.5222 -100.8044 318° Northwest 236 272 24,000  Level Fort Worth Center
07:08PM 33.5667 -100.8536 317° Northwest 236 272 24,000  Level Fort Worth Center
07:09PM 33.6194 -100.9131 317° Northwest 241 277 24,000  Level Fort Worth Center
07:10PM 33.6639 -100.9597 319° Northwest 241 277 24,000  Level Fort Worth Center
07:11PM 33.7186 -101.0219 317° Northwest 241 277 24,000  Level Fort Worth Center
07:12PM 33.7567 -101.0708 313° West 232 267 24,000  Level Fort Worth Center
07:13PM 33.8114 -101.1281 319° Northwest 238 274 24,000  Level Fort Worth Center
07:14PM 33.8578 -101.1778 318° Northwest 243 280 24,000  Level Fort Worth Center
07:15PM 33.9103 -101.2400 315° West 237 273 24,000  Level Fort Worth Center
07:16PM 33.9547 -101.2869 319° Northwest 237 273 24,000  Level Fort Worth Center
07:17PM 34.0072 -101.3469 317° Northwest 237 273 24,000  Level Fort Worth Center
07:18PM 34.0494 -101.3964 316° Northwest 237 273 24,000  Level Fort Worth Center
07:19PM 34.1036 -101.4592 316° Northwest 237 273 24,000 -540 Level Fort Worth Center
07:20PM 34.1500 -101.5117 317° Northwest 242 278 23,000 -1,440 Descending Fort Worth Center
07:21PM 34.2083 -101.5772 317° Northwest 257 296 21,200 -1,500 Descending Fort Worth Center
07:22PM 34.2564 -101.6347 315° West 262 302 20,000 -1,020 Descending Fort Worth Center
07:24PM 34.3794 -101.7714 318° Northwest 252 290 17,700 -1,200 Descending Albuquerque Center
07:25PM 34.4378 -101.8375 317° Northwest 241 277 15,800 -1,740 Descending Albuquerque Center
07:26PM 34.4883 -101.8958 316° Northwest 246 283 14,200 -1,620 Descending Albuquerque Center
07:27PM 34.5381 -101.9539 316° Northwest 248 285 12,600 -1,440 Descending Albuquerque Center
07:28PM 34.5886 -102.0122 316° Northwest 249 287 11,300 -1,260 Descending Albuquerque Center
07:29PM 34.6356 -102.0656 317° Northwest 235 270 10,100 -1,200 Descending Albuquerque Center
07:30PM 34.6806 -102.1167 317° Northwest 228 262 8,900 -1,080 Descending Albuquerque Center
07:31PM 34.7228 -102.1667 316° Northwest 220 253 7,900 -1,020 Descending Albuquerque Center
07:33PM 34.7741 -102.2373 312° West  Level FlightAware Approximate
07:40PM 34.8500 -102.3167 309° West  Level FlightAware Approximate
07:41PM 34.8607 -102.3259 309° West  Level Estimated
07:42PM 34.8607 -102.3259 309° West  Level Estimated
07:43PM 34.8607 -102.3259 309° West  Level Estimated